sensor_id;sensor_type;location;lat;lon;timestamp;P1;P2;P0
56069;PMS5003;41944;52.078;-0.058;2023-08-31T00:02:17;8;7;
56069;PMS5003;41944;52.078;-0.058;2023-08-31T00:04:44;9;9;
56069;PMS5003;41944;52.078;-0.058;2023-08-31T00:07:11;7;5;
56069;PMS5003;41944;52.078;-0.058;2023-08-31T00:09:38;6;6;
56069;PMS5003;41944;52.078;-0.058;2023-08-31T00:12:06;5;5;
56069;PMS5003;41944;52.078;-0.058;2023-08-31T00:14:34;8;6;
56069;PMS5003;41944;52.078;-0.058;2023-08-31T00:17:02;6;4;
56069;PMS5003;41944;52.078;-0.058;2023-08-31T00:19:28;5;5;
56069;PMS5003;41944;52.078;-0.058;2023-08-31T00:21:55;7;7;
56069;PMS5003;41944;52.078;-0.058;2023-08-31T00:24:22;6;6;
56069;PMS5003;41944;52.078;-0.058;2023-08-31T00:26:49;5;4;
56069;PMS5003;41944;52.078;-0.058;2023-08-31T00:29:17;6;5;
56069;PMS5003;41944;52.078;-0.058;2023-08-31T00:31:43;5;5;
56069;PMS5003;41944;52.078;-0.058;2023-08-31T00:34:10;5;5;
56069;PMS5003;41944;52.078;-0.058;2023-08-31T00:36:37;5;5;
56069;PMS5003;41944;52.078;-0.058;2023-08-31T00:39:05;6;6;
56069;PMS5003;41944;52.078;-0.058;2023-08-31T00:41:32;7;5;
56069;PMS5003;41944;52.078;-0.058;2023-08-31T00:43:59;6;4;
56069;PMS5003;41944;52.078;-0.058;2023-08-31T00:46:25;6;4;
56069;PMS5003;41944;52.078;-0.058;2023-08-31T00:48:52;5;5;
56069;PMS5003;41944;52.078;-0.058;2023-08-31T00:51:20;3;3;
56069;PMS5003;41944;52.078;-0.058;2023-08-31T00:53:47;8;7;
56069;PMS5003;41944;52.078;-0.058;2023-08-31T00:56:16;7;4;
56069;PMS5003;41944;52.078;-0.058;2023-08-31T00:58:43;7;6;
56069;PMS5003;41944;52.078;-0.058;2023-08-31T01:01:13;5;5;
56069;PMS5003;41944;52.078;-0.058;2023-08-31T01:03:50;6;6;
56069;PMS5003;41944;52.078;-0.058;2023-08-31T01:06:26;7;6;
56069;PMS5003;41944;52.078;-0.058;2023-08-31T01:09:02;7;7;
56069;PMS5003;41944;52.078;-0.058;2023-08-31T01:11:40;8;5;
56069;PMS5003;41944;52.078;-0.058;2023-08-31T01:14:23;7;7;
56069;PMS5003;41944;52.078;-0.058;2023-08-31T01:16:51;9;6;
56069;PMS5003;41944;52.078;-0.058;2023-08-31T01:19:27;8;7;
56069;PMS5003;41944;52.078;-0.058;2023-08-31T01:22:13;6;6;
56069;PMS5003;41944;52.078;-0.058;2023-08-31T01:24:48;6;6;
56069;PMS5003;41944;52.078;-0.058;2023-08-31T01:27:16;9;6;
56069;PMS5003;41944;52.078;-0.058;2023-08-31T01:29:45;6;6;
56069;PMS5003;41944;52.078;-0.058;2023-08-31T01:32:12;7;7;
56069;PMS5003;41944;52.078;-0.058;2023-08-31T01:34:39;7;5;
56069;PMS5003;41944;52.078;-0.058;2023-08-31T01:37:08;8;6;
56069;PMS5003;41944;52.078;-0.058;2023-08-31T01:39:39;7;6;
56069;PMS5003;41944;52.078;-0.058;2023-08-31T01:42:13;10;6;
56069;PMS5003;41944;52.078;-0.058;2023-08-31T01:44:42;6;6;
56069;PMS5003;41944;52.078;-0.058;2023-08-31T01:47:11;6;5;
56069;PMS5003;41944;52.078;-0.058;2023-08-31T01:49:39;4;3;
56069;PMS5003;41944;52.078;-0.058;2023-08-31T01:52:06;4;4;
56069;PMS5003;41944;52.078;-0.058;2023-08-31T01:54:33;6;6;
56069;PMS5003;41944;52.078;-0.058;2023-08-31T01:57:01;4;4;
56069;PMS5003;41944;52.078;-0.058;2023-08-31T01:59:28;6;6;
56069;PMS5003;41944;52.078;-0.058;2023-08-31T02:01:55;5;5;
56069;PMS5003;41944;52.078;-0.058;2023-08-31T02:04:22;11;8;
56069;PMS5003;41944;52.078;-0.058;2023-08-31T02:06:49;5;5;
56069;PMS5003;41944;52.078;-0.058;2023-08-31T02:09:16;8;6;
56069;PMS5003;41944;52.078;-0.058;2023-08-31T02:11:43;7;5;
56069;PMS5003;41944;52.078;-0.058;2023-08-31T02:14:09;5;5;
56069;PMS5003;41944;52.078;-0.058;2023-08-31T02:16:36;6;5;
56069;PMS5003;41944;52.078;-0.058;2023-08-31T02:19:04;6;6;
56069;PMS5003;41944;52.078;-0.058;2023-08-31T02:21:31;8;5;
56069;PMS5003;41944;52.078;-0.058;2023-08-31T02:23:58;5;5;
56069;PMS5003;41944;52.078;-0.058;2023-08-31T02:26:25;5;5;
56069;PMS5003;41944;52.078;-0.058;2023-08-31T02:28:52;5;5;
56069;PMS5003;41944;52.078;-0.058;2023-08-31T02:31:18;8;8;
56069;PMS5003;41944;52.078;-0.058;2023-08-31T02:33:45;6;6;
56069;PMS5003;41944;52.078;-0.058;2023-08-31T02:36:13;8;7;
56069;PMS5003;41944;52.078;-0.058;2023-08-31T02:38:40;7;7;
56069;PMS5003;41944;52.078;-0.058;2023-08-31T02:41:08;9;8;
56069;PMS5003;41944;52.078;-0.058;2023-08-31T02:43:35;6;6;
56069;PMS5003;41944;52.078;-0.058;2023-08-31T02:46:02;7;7;
56069;PMS5003;41944;52.078;-0.058;2023-08-31T02:48:32;7;7;
56069;PMS5003;41944;52.078;-0.058;2023-08-31T02:51:00;10;8;
56069;PMS5003;41944;52.078;-0.058;2023-08-31T02:53:26;8;7;
56069;PMS5003;41944;52.078;-0.058;2023-08-31T02:55:54;6;6;
56069;PMS5003;41944;52.078;-0.058;2023-08-31T02:58:21;7;7;
56069;PMS5003;41944;52.078;-0.058;2023-08-31T03:00:48;6;6;
56069;PMS5003;41944;52.078;-0.058;2023-08-31T03:03:16;11;9;
56069;PMS5003;41944;52.078;-0.058;2023-08-31T03:05:43;9;9;
56069;PMS5003;41944;52.078;-0.058;2023-08-31T03:08:11;9;8;
56069;PMS5003;41944;52.078;-0.058;2023-08-31T03:10:38;8;8;
56069;PMS5003;41944;52.078;-0.058;2023-08-31T03:13:06;10;10;
56069;PMS5003;41944;52.078;-0.058;2023-08-31T03:15:33;8;7;
56069;PMS5003;41944;52.078;-0.058;2023-08-31T03:18:00;8;7;
56069;PMS5003;41944;52.078;-0.058;2023-08-31T03:20:28;8;6;
56069;PMS5003;41944;52.078;-0.058;2023-08-31T03:22:55;10;10;
56069;PMS5003;41944;52.078;-0.058;2023-08-31T03:25:21;11;8;
56069;PMS5003;41944;52.078;-0.058;2023-08-31T03:27:48;8;8;
56069;PMS5003;41944;52.078;-0.058;2023-08-31T03:30:16;9;9;
56069;PMS5003;41944;52.078;-0.058;2023-08-31T03:32:43;14;13;
56069;PMS5003;41944;52.078;-0.058;2023-08-31T03:35:10;9;9;
56069;PMS5003;41944;52.078;-0.058;2023-08-31T03:37:37;16;11;
56069;PMS5003;41944;52.078;-0.058;2023-08-31T03:40:06;11;9;
56069;PMS5003;41944;52.078;-0.058;2023-08-31T03:42:33;10;9;
56069;PMS5003;41944;52.078;-0.058;2023-08-31T03:45:01;10;9;
56069;PMS5003;41944;52.078;-0.058;2023-08-31T03:47:28;8;8;
56069;PMS5003;41944;52.078;-0.058;2023-08-31T03:49:54;15;11;
56069;PMS5003;41944;52.078;-0.058;2023-08-31T03:52:22;12;9;
56069;PMS5003;41944;52.078;-0.058;2023-08-31T03:54:49;12;9;
56069;PMS5003;41944;52.078;-0.058;2023-08-31T03:57:17;11;8;
56069;PMS5003;41944;52.078;-0.058;2023-08-31T03:59:44;9;9;
56069;PMS5003;41944;52.078;-0.058;2023-08-31T04:02:11;12;9;
56069;PMS5003;41944;52.078;-0.058;2023-08-31T04:04:38;8;8;
56069;PMS5003;41944;52.078;-0.058;2023-08-31T04:07:06;9;8;
56069;PMS5003;41944;52.078;-0.058;2023-08-31T04:09:33;12;11;
56069;PMS5003;41944;52.078;-0.058;2023-08-31T04:12:00;7;7;
56069;PMS5003;41944;52.078;-0.058;2023-08-31T04:14:28;10;10;
56069;PMS5003;41944;52.078;-0.058;2023-08-31T04:16:55;9;8;
56069;PMS5003;41944;52.078;-0.058;2023-08-31T04:19:22;8;8;
56069;PMS5003;41944;52.078;-0.058;2023-08-31T04:21:50;10;9;
56069;PMS5003;41944;52.078;-0.058;2023-08-31T04:24:17;11;8;
56069;PMS5003;41944;52.078;-0.058;2023-08-31T04:26:44;10;8;
56069;PMS5003;41944;52.078;-0.058;2023-08-31T04:29:11;8;8;
56069;PMS5003;41944;52.078;-0.058;2023-08-31T04:31:38;9;8;
56069;PMS5003;41944;52.078;-0.058;2023-08-31T04:34:05;9;9;
56069;PMS5003;41944;52.078;-0.058;2023-08-31T04:36:32;10;8;
56069;PMS5003;41944;52.078;-0.058;2023-08-31T04:39:00;10;8;
56069;PMS5003;41944;52.078;-0.058;2023-08-31T04:41:27;8;7;
56069;PMS5003;41944;52.078;-0.058;2023-08-31T04:43:54;11;10;
56069;PMS5003;41944;52.078;-0.058;2023-08-31T04:46:21;8;8;
56069;PMS5003;41944;52.078;-0.058;2023-08-31T04:48:47;9;7;
56069;PMS5003;41944;52.078;-0.058;2023-08-31T04:51:30;9;9;
56069;PMS5003;41944;52.078;-0.058;2023-08-31T04:53:58;9;9;
56069;PMS5003;41944;52.078;-0.058;2023-08-31T04:56:31;11;9;
56069;PMS5003;41944;52.078;-0.058;2023-08-31T04:58:59;9;9;
56069;PMS5003;41944;52.078;-0.058;2023-08-31T05:01:27;9;8;
56069;PMS5003;41944;52.078;-0.058;2023-08-31T05:03:54;16;10;
56069;PMS5003;41944;52.078;-0.058;2023-08-31T05:06:21;9;8;
56069;PMS5003;41944;52.078;-0.058;2023-08-31T05:08:47;10;9;
56069;PMS5003;41944;52.078;-0.058;2023-08-31T05:11:14;12;10;
56069;PMS5003;41944;52.078;-0.058;2023-08-31T05:13:41;8;8;
56069;PMS5003;41944;52.078;-0.058;2023-08-31T05:16:08;9;9;
56069;PMS5003;41944;52.078;-0.058;2023-08-31T05:18:37;8;8;
56069;PMS5003;41944;52.078;-0.058;2023-08-31T05:21:04;7;7;
56069;PMS5003;41944;52.078;-0.058;2023-08-31T05:23:31;8;7;
56069;PMS5003;41944;52.078;-0.058;2023-08-31T05:25:58;11;8;
56069;PMS5003;41944;52.078;-0.058;2023-08-31T05:28:25;10;10;
56069;PMS5003;41944;52.078;-0.058;2023-08-31T05:30:53;12;9;
56069;PMS5003;41944;52.078;-0.058;2023-08-31T05:33:21;9;7;
56069;PMS5003;41944;52.078;-0.058;2023-08-31T05:35:49;11;10;
56069;PMS5003;41944;52.078;-0.058;2023-08-31T05:38:16;8;8;
56069;PMS5003;41944;52.078;-0.058;2023-08-31T05:40:42;10;9;
56069;PMS5003;41944;52.078;-0.058;2023-08-31T05:43:10;9;9;
56069;PMS5003;41944;52.078;-0.058;2023-08-31T05:45:38;14;12;
56069;PMS5003;41944;52.078;-0.058;2023-08-31T05:48:05;13;13;
56069;PMS5003;41944;52.078;-0.058;2023-08-31T05:50:34;12;10;
56069;PMS5003;41944;52.078;-0.058;2023-08-31T05:53:02;15;12;
56069;PMS5003;41944;52.078;-0.058;2023-08-31T05:55:29;15;13;
56069;PMS5003;41944;52.078;-0.058;2023-08-31T05:57:56;15;8;
56069;PMS5003;41944;52.078;-0.058;2023-08-31T06:00:23;14;11;
56069;PMS5003;41944;52.078;-0.058;2023-08-31T06:02:50;12;10;
56069;PMS5003;41944;52.078;-0.058;2023-08-31T06:05:17;14;10;
56069;PMS5003;41944;52.078;-0.058;2023-08-31T06:07:44;10;10;
56069;PMS5003;41944;52.078;-0.058;2023-08-31T06:10:11;17;13;
56069;PMS5003;41944;52.078;-0.058;2023-08-31T06:12:39;9;9;
56069;PMS5003;41944;52.078;-0.058;2023-08-31T06:15:06;11;9;
56069;PMS5003;41944;52.078;-0.058;2023-08-31T06:17:34;8;8;
56069;PMS5003;41944;52.078;-0.058;2023-08-31T06:20:01;12;9;
56069;PMS5003;41944;52.078;-0.058;2023-08-31T06:22:29;15;15;
56069;PMS5003;41944;52.078;-0.058;2023-08-31T06:24:56;13;12;
56069;PMS5003;41944;52.078;-0.058;2023-08-31T06:27:23;11;10;
56069;PMS5003;41944;52.078;-0.058;2023-08-31T06:29:50;12;12;
56069;PMS5003;41944;52.078;-0.058;2023-08-31T06:32:17;24;21;
56069;PMS5003;41944;52.078;-0.058;2023-08-31T06:34:45;14;11;
56069;PMS5003;41944;52.078;-0.058;2023-08-31T06:37:12;11;9;
56069;PMS5003;41944;52.078;-0.058;2023-08-31T06:39:39;12;10;
56069;PMS5003;41944;52.078;-0.058;2023-08-31T06:42:07;10;9;
56069;PMS5003;41944;52.078;-0.058;2023-08-31T06:44:34;12;12;
56069;PMS5003;41944;52.078;-0.058;2023-08-31T06:47:01;10;9;
56069;PMS5003;41944;52.078;-0.058;2023-08-31T06:49:28;13;10;
56069;PMS5003;41944;52.078;-0.058;2023-08-31T06:51:55;10;8;
56069;PMS5003;41944;52.078;-0.058;2023-08-31T06:54:22;10;10;
56069;PMS5003;41944;52.078;-0.058;2023-08-31T06:56:49;9;9;
56069;PMS5003;41944;52.078;-0.058;2023-08-31T06:59:16;9;9;
56069;PMS5003;41944;52.078;-0.058;2023-08-31T07:01:43;13;10;
56069;PMS5003;41944;52.078;-0.058;2023-08-31T07:04:10;13;9;
56069;PMS5003;41944;52.078;-0.058;2023-08-31T07:06:37;9;8;
56069;PMS5003;41944;52.078;-0.058;2023-08-31T07:09:05;12;8;
56069;PMS5003;41944;52.078;-0.058;2023-08-31T07:11:32;8;8;
56069;PMS5003;41944;52.078;-0.058;2023-08-31T07:13:58;12;9;
56069;PMS5003;41944;52.078;-0.058;2023-08-31T07:16:25;10;9;
56069;PMS5003;41944;52.078;-0.058;2023-08-31T07:18:52;10;8;
56069;PMS5003;41944;52.078;-0.058;2023-08-31T07:21:19;9;7;
56069;PMS5003;41944;52.078;-0.058;2023-08-31T07:23:46;15;8;
56069;PMS5003;41944;52.078;-0.058;2023-08-31T07:26:13;11;9;
56069;PMS5003;41944;52.078;-0.058;2023-08-31T07:28:40;9;9;
56069;PMS5003;41944;52.078;-0.058;2023-08-31T07:31:08;11;8;
56069;PMS5003;41944;52.078;-0.058;2023-08-31T07:33:35;7;7;
56069;PMS5003;41944;52.078;-0.058;2023-08-31T07:36:03;7;7;
56069;PMS5003;41944;52.078;-0.058;2023-08-31T07:38:30;17;9;
56069;PMS5003;41944;52.078;-0.058;2023-08-31T07:40:58;10;9;
56069;PMS5003;41944;52.078;-0.058;2023-08-31T07:43:26;10;10;
56069;PMS5003;41944;52.078;-0.058;2023-08-31T07:45:53;11;8;
56069;PMS5003;41944;52.078;-0.058;2023-08-31T07:48:21;9;9;
56069;PMS5003;41944;52.078;-0.058;2023-08-31T07:50:47;10;8;
56069;PMS5003;41944;52.078;-0.058;2023-08-31T07:53:15;12;9;
56069;PMS5003;41944;52.078;-0.058;2023-08-31T07:55:42;8;6;
56069;PMS5003;41944;52.078;-0.058;2023-08-31T07:58:17;9;7;
56069;PMS5003;41944;52.078;-0.058;2023-08-31T08:00:44;7;7;
56069;PMS5003;41944;52.078;-0.058;2023-08-31T08:03:11;14;9;
56069;PMS5003;41944;52.078;-0.058;2023-08-31T08:05:39;7;7;
56069;PMS5003;41944;52.078;-0.058;2023-08-31T08:08:06;7;6;
56069;PMS5003;41944;52.078;-0.058;2023-08-31T08:10:33;9;8;
56069;PMS5003;41944;52.078;-0.058;2023-08-31T08:13:00;8;7;
56069;PMS5003;41944;52.078;-0.058;2023-08-31T08:15:27;4;4;
56069;PMS5003;41944;52.078;-0.058;2023-08-31T08:17:54;11;8;
56069;PMS5003;41944;52.078;-0.058;2023-08-31T08:20:21;9;7;
56069;PMS5003;41944;52.078;-0.058;2023-08-31T08:22:48;10;8;
56069;PMS5003;41944;52.078;-0.058;2023-08-31T08:25:15;16;12;
56069;PMS5003;41944;52.078;-0.058;2023-08-31T08:27:43;9;9;
56069;PMS5003;41944;52.078;-0.058;2023-08-31T08:30:09;9;9;
56069;PMS5003;41944;52.078;-0.058;2023-08-31T08:32:37;12;8;
56069;PMS5003;41944;52.078;-0.058;2023-08-31T08:35:05;8;8;
56069;PMS5003;41944;52.078;-0.058;2023-08-31T08:37:32;11;9;
56069;PMS5003;41944;52.078;-0.058;2023-08-31T08:40:00;9;8;
56069;PMS5003;41944;52.078;-0.058;2023-08-31T08:42:29;6;6;
56069;PMS5003;41944;52.078;-0.058;2023-08-31T08:44:56;10;8;
56069;PMS5003;41944;52.078;-0.058;2023-08-31T08:47:24;11;8;
56069;PMS5003;41944;52.078;-0.058;2023-08-31T08:49:52;12;8;
56069;PMS5003;41944;52.078;-0.058;2023-08-31T08:52:20;8;8;
56069;PMS5003;41944;52.078;-0.058;2023-08-31T08:54:48;10;8;
56069;PMS5003;41944;52.078;-0.058;2023-08-31T08:57:15;8;7;
56069;PMS5003;41944;52.078;-0.058;2023-08-31T08:59:43;6;6;
56069;PMS5003;41944;52.078;-0.058;2023-08-31T09:02:10;9;8;
56069;PMS5003;41944;52.078;-0.058;2023-08-31T09:04:38;9;8;
56069;PMS5003;41944;52.078;-0.058;2023-08-31T09:07:05;10;9;
56069;PMS5003;41944;52.078;-0.058;2023-08-31T09:09:32;9;7;
56069;PMS5003;41944;52.078;-0.058;2023-08-31T09:12:14;7;6;
56069;PMS5003;41944;52.078;-0.058;2023-08-31T09:14:41;10;5;
56069;PMS5003;41944;52.078;-0.058;2023-08-31T09:17:08;11;7;
56069;PMS5003;41944;52.078;-0.058;2023-08-31T09:19:36;8;7;
56069;PMS5003;41944;52.078;-0.058;2023-08-31T09:22:04;4;4;
56069;PMS5003;41944;52.078;-0.058;2023-08-31T09:24:39;5;3;
56069;PMS5003;41944;52.078;-0.058;2023-08-31T09:27:07;3;2;
56069;PMS5003;41944;52.078;-0.058;2023-08-31T09:29:34;4;2;
56069;PMS5003;41944;52.078;-0.058;2023-08-31T09:32:05;3;1;
56069;PMS5003;41944;52.078;-0.058;2023-08-31T09:34:33;3;3;
56069;PMS5003;41944;52.078;-0.058;2023-08-31T09:37:03;5;4;
56069;PMS5003;41944;52.078;-0.058;2023-08-31T09:39:35;3;3;
56069;PMS5003;41944;52.078;-0.058;2023-08-31T09:42:03;2;1;
56069;PMS5003;41944;52.078;-0.058;2023-08-31T09:44:30;5;2;
56069;PMS5003;41944;52.078;-0.058;2023-08-31T09:46:58;2;2;
56069;PMS5003;41944;52.078;-0.058;2023-08-31T09:49:26;4;4;
56069;PMS5003;41944;52.078;-0.058;2023-08-31T09:51:53;4;3;
56069;PMS5003;41944;52.078;-0.058;2023-08-31T09:54:21;4;3;
56069;PMS5003;41944;52.078;-0.058;2023-08-31T09:56:49;5;4;
56069;PMS5003;41944;52.078;-0.058;2023-08-31T09:59:17;5;3;
56069;PMS5003;41944;52.078;-0.058;2023-08-31T10:01:45;5;4;
56069;PMS5003;41944;52.078;-0.058;2023-08-31T10:04:13;5;4;
56069;PMS5003;41944;52.078;-0.058;2023-08-31T10:06:42;4;4;
56069;PMS5003;41944;52.078;-0.058;2023-08-31T10:09:09;5;5;
56069;PMS5003;41944;52.078;-0.058;2023-08-31T10:11:37;6;3;
56069;PMS5003;41944;52.078;-0.058;2023-08-31T10:14:05;4;3;
56069;PMS5003;41944;52.078;-0.058;2023-08-31T10:16:34;4;4;
56069;PMS5003;41944;52.078;-0.058;2023-08-31T10:19:01;3;3;
56069;PMS5003;41944;52.078;-0.058;2023-08-31T10:21:29;5;3;
56069;PMS5003;41944;52.078;-0.058;2023-08-31T10:23:56;3;3;
56069;PMS5003;41944;52.078;-0.058;2023-08-31T10:26:23;5;5;
56069;PMS5003;41944;52.078;-0.058;2023-08-31T10:28:52;3;3;
56069;PMS5003;41944;52.078;-0.058;2023-08-31T10:31:19;4;4;
56069;PMS5003;41944;52.078;-0.058;2023-08-31T10:33:47;8;5;
56069;PMS5003;41944;52.078;-0.058;2023-08-31T10:36:22;2;2;
56069;PMS5003;41944;52.078;-0.058;2023-08-31T10:39:05;5;5;
56069;PMS5003;41944;52.078;-0.058;2023-08-31T10:41:33;3;3;
56069;PMS5003;41944;52.078;-0.058;2023-08-31T10:44:01;6;5;
56069;PMS5003;41944;52.078;-0.058;2023-08-31T10:46:30;5;5;
56069;PMS5003;41944;52.078;-0.058;2023-08-31T10:48:59;2;2;
56069;PMS5003;41944;52.078;-0.058;2023-08-31T10:51:28;3;3;
56069;PMS5003;41944;52.078;-0.058;2023-08-31T10:54:04;5;3;
56069;PMS5003;41944;52.078;-0.058;2023-08-31T10:56:33;7;4;
56069;PMS5003;41944;52.078;-0.058;2023-08-31T10:59:00;5;5;
56069;PMS5003;41944;52.078;-0.058;2023-08-31T11:02:00;3;3;
56069;PMS5003;41944;52.078;-0.058;2023-08-31T11:04:28;3;3;
56069;PMS5003;41944;52.078;-0.058;2023-08-31T11:07:29;3;3;
56069;PMS5003;41944;52.078;-0.058;2023-08-31T11:10:06;5;5;
56069;PMS5003;41944;52.078;-0.058;2023-08-31T11:12:36;5;3;
56069;PMS5003;41944;52.078;-0.058;2023-08-31T11:15:05;8;6;
56069;PMS5003;41944;52.078;-0.058;2023-08-31T11:17:33;5;4;
56069;PMS5003;41944;52.078;-0.058;2023-08-31T11:20:01;5;3;
56069;PMS5003;41944;52.078;-0.058;2023-08-31T11:22:28;7;3;
56069;PMS5003;41944;52.078;-0.058;2023-08-31T11:24:56;3;2;
56069;PMS5003;41944;52.078;-0.058;2023-08-31T11:27:24;1;1;
56069;PMS5003;41944;52.078;-0.058;2023-08-31T11:29:52;6;3;
56069;PMS5003;41944;52.078;-0.058;2023-08-31T11:32:18;4;4;
56069;PMS5003;41944;52.078;-0.058;2023-08-31T11:34:49;4;2;
56069;PMS5003;41944;52.078;-0.058;2023-08-31T11:37:17;2;2;
56069;PMS5003;41944;52.078;-0.058;2023-08-31T11:39:48;5;4;
56069;PMS5003;41944;52.078;-0.058;2023-08-31T11:42:16;2;2;
56069;PMS5003;41944;52.078;-0.058;2023-08-31T11:44:46;2;2;
56069;PMS5003;41944;52.078;-0.058;2023-08-31T11:47:14;5;3;
56069;PMS5003;41944;52.078;-0.058;2023-08-31T11:49:42;7;2;
56069;PMS5003;41944;52.078;-0.058;2023-08-31T11:52:10;3;2;
56069;PMS5003;41944;52.078;-0.058;2023-08-31T11:54:39;3;2;
56069;PMS5003;41944;52.078;-0.058;2023-08-31T11:57:08;4;2;
56069;PMS5003;41944;52.078;-0.058;2023-08-31T11:59:37;3;3;
56069;PMS5003;41944;52.078;-0.058;2023-08-31T12:02:05;6;3;
56069;PMS5003;41944;52.078;-0.058;2023-08-31T12:04:41;2;2;
56069;PMS5003;41944;52.078;-0.058;2023-08-31T12:07:09;3;3;
56069;PMS5003;41944;52.078;-0.058;2023-08-31T12:09:36;3;3;
56069;PMS5003;41944;52.078;-0.058;2023-08-31T12:12:04;4;3;
56069;PMS5003;41944;52.078;-0.058;2023-08-31T12:14:36;3;3;
56069;PMS5003;41944;52.078;-0.058;2023-08-31T12:17:05;3;3;
56069;PMS5003;41944;52.078;-0.058;2023-08-31T12:19:33;4;4;
56069;PMS5003;41944;52.078;-0.058;2023-08-31T12:22:04;3;3;
56069;PMS5003;41944;52.078;-0.058;2023-08-31T12:24:36;3;3;
56069;PMS5003;41944;52.078;-0.058;2023-08-31T12:27:04;4;4;
56069;PMS5003;41944;52.078;-0.058;2023-08-31T12:29:31;5;5;
56069;PMS5003;41944;52.078;-0.058;2023-08-31T12:31:57;5;5;
56069;PMS5003;41944;52.078;-0.058;2023-08-31T12:34:25;6;6;
56069;PMS5003;41944;52.078;-0.058;2023-08-31T12:36:53;7;5;
56069;PMS5003;41944;52.078;-0.058;2023-08-31T12:39:21;5;5;
56069;PMS5003;41944;52.078;-0.058;2023-08-31T12:41:47;9;7;
56069;PMS5003;41944;52.078;-0.058;2023-08-31T12:44:14;9;7;
56069;PMS5003;41944;52.078;-0.058;2023-08-31T12:46:41;3;3;
56069;PMS5003;41944;52.078;-0.058;2023-08-31T12:49:09;8;7;
56069;PMS5003;41944;52.078;-0.058;2023-08-31T12:51:36;7;5;
56069;PMS5003;41944;52.078;-0.058;2023-08-31T12:54:04;9;7;
56069;PMS5003;41944;52.078;-0.058;2023-08-31T12:56:31;5;5;
56069;PMS5003;41944;52.078;-0.058;2023-08-31T12:58:58;5;4;
56069;PMS5003;41944;52.078;-0.058;2023-08-31T13:01:26;6;6;
56069;PMS5003;41944;52.078;-0.058;2023-08-31T13:03:53;7;6;
56069;PMS5003;41944;52.078;-0.058;2023-08-31T13:06:20;5;5;
56069;PMS5003;41944;52.078;-0.058;2023-08-31T13:08:46;5;4;
56069;PMS5003;41944;52.078;-0.058;2023-08-31T13:11:13;4;4;
56069;PMS5003;41944;52.078;-0.058;2023-08-31T13:13:40;3;3;
56069;PMS5003;41944;52.078;-0.058;2023-08-31T13:16:08;7;5;
56069;PMS5003;41944;52.078;-0.058;2023-08-31T13:18:36;4;4;
56069;PMS5003;41944;52.078;-0.058;2023-08-31T13:21:03;6;6;
56069;PMS5003;41944;52.078;-0.058;2023-08-31T13:23:30;6;6;
56069;PMS5003;41944;52.078;-0.058;2023-08-31T13:25:57;5;4;
56069;PMS5003;41944;52.078;-0.058;2023-08-31T13:28:25;5;5;
56069;PMS5003;41944;52.078;-0.058;2023-08-31T13:30:55;7;4;
56069;PMS5003;41944;52.078;-0.058;2023-08-31T13:33:23;6;5;
56069;PMS5003;41944;52.078;-0.058;2023-08-31T13:35:50;5;5;
56069;PMS5003;41944;52.078;-0.058;2023-08-31T13:38:17;5;4;
56069;PMS5003;41944;52.078;-0.058;2023-08-31T13:40:43;6;6;
56069;PMS5003;41944;52.078;-0.058;2023-08-31T13:43:10;6;6;
56069;PMS5003;41944;52.078;-0.058;2023-08-31T13:45:37;5;4;
56069;PMS5003;41944;52.078;-0.058;2023-08-31T13:48:05;3;3;
56069;PMS5003;41944;52.078;-0.058;2023-08-31T13:50:33;5;3;
56069;PMS5003;41944;52.078;-0.058;2023-08-31T13:52:59;3;3;
56069;PMS5003;41944;52.078;-0.058;2023-08-31T13:55:26;5;4;
56069;PMS5003;41944;52.078;-0.058;2023-08-31T13:57:53;6;4;
56069;PMS5003;41944;52.078;-0.058;2023-08-31T14:00:20;9;5;
56069;PMS5003;41944;52.078;-0.058;2023-08-31T14:02:48;5;5;
56069;PMS5003;41944;52.078;-0.058;2023-08-31T14:05:15;5;5;
56069;PMS5003;41944;52.078;-0.058;2023-08-31T14:07:41;2;2;
56069;PMS5003;41944;52.078;-0.058;2023-08-31T14:10:09;4;3;
56069;PMS5003;41944;52.078;-0.058;2023-08-31T14:12:36;7;5;
56069;PMS5003;41944;52.078;-0.058;2023-08-31T14:15:05;4;4;
56069;PMS5003;41944;52.078;-0.058;2023-08-31T14:17:32;4;4;
56069;PMS5003;41944;52.078;-0.058;2023-08-31T14:20:00;9;6;
56069;PMS5003;41944;52.078;-0.058;2023-08-31T14:22:27;4;4;
56069;PMS5003;41944;52.078;-0.058;2023-08-31T14:24:54;7;6;
56069;PMS5003;41944;52.078;-0.058;2023-08-31T14:27:21;4;4;
56069;PMS5003;41944;52.078;-0.058;2023-08-31T14:29:48;7;7;
56069;PMS5003;41944;52.078;-0.058;2023-08-31T14:32:15;4;4;
56069;PMS5003;41944;52.078;-0.058;2023-08-31T14:34:42;11;10;
56069;PMS5003;41944;52.078;-0.058;2023-08-31T14:37:08;6;5;
56069;PMS5003;41944;52.078;-0.058;2023-08-31T14:39:35;4;4;
56069;PMS5003;41944;52.078;-0.058;2023-08-31T14:42:03;5;5;
56069;PMS5003;41944;52.078;-0.058;2023-08-31T14:44:30;8;6;
56069;PMS5003;41944;52.078;-0.058;2023-08-31T14:46:57;5;5;
56069;PMS5003;41944;52.078;-0.058;2023-08-31T14:49:24;4;4;
56069;PMS5003;41944;52.078;-0.058;2023-08-31T14:51:51;4;4;
56069;PMS5003;41944;52.078;-0.058;2023-08-31T14:54:18;6;4;
56069;PMS5003;41944;52.078;-0.058;2023-08-31T14:56:45;8;6;
56069;PMS5003;41944;52.078;-0.058;2023-08-31T14:59:12;8;6;
56069;PMS5003;41944;52.078;-0.058;2023-08-31T15:01:39;7;6;
56069;PMS5003;41944;52.078;-0.058;2023-08-31T15:04:07;7;6;
56069;PMS5003;41944;52.078;-0.058;2023-08-31T15:06:33;11;6;
56069;PMS5003;41944;52.078;-0.058;2023-08-31T15:09:00;8;7;
56069;PMS5003;41944;52.078;-0.058;2023-08-31T15:11:27;6;4;
56069;PMS5003;41944;52.078;-0.058;2023-08-31T15:13:55;6;6;
56069;PMS5003;41944;52.078;-0.058;2023-08-31T15:16:22;4;4;
56069;PMS5003;41944;52.078;-0.058;2023-08-31T15:18:50;7;7;
56069;PMS5003;41944;52.078;-0.058;2023-08-31T15:21:18;6;6;
56069;PMS5003;41944;52.078;-0.058;2023-08-31T15:23:45;8;6;
56069;PMS5003;41944;52.078;-0.058;2023-08-31T15:26:12;7;5;
56069;PMS5003;41944;52.078;-0.058;2023-08-31T15:28:39;4;4;
56069;PMS5003;41944;52.078;-0.058;2023-08-31T15:31:06;5;5;
56069;PMS5003;41944;52.078;-0.058;2023-08-31T15:33:33;5;5;
56069;PMS5003;41944;52.078;-0.058;2023-08-31T15:36:02;4;4;
56069;PMS5003;41944;52.078;-0.058;2023-08-31T15:38:31;3;3;
56069;PMS5003;41944;52.078;-0.058;2023-08-31T15:40:58;5;5;
56069;PMS5003;41944;52.078;-0.058;2023-08-31T15:43:27;4;4;
56069;PMS5003;41944;52.078;-0.058;2023-08-31T15:45:57;5;4;
56069;PMS5003;41944;52.078;-0.058;2023-08-31T15:48:24;6;5;
56069;PMS5003;41944;52.078;-0.058;2023-08-31T15:50:51;5;4;
56069;PMS5003;41944;52.078;-0.058;2023-08-31T15:53:19;5;5;
56069;PMS5003;41944;52.078;-0.058;2023-08-31T15:55:46;4;4;
56069;PMS5003;41944;52.078;-0.058;2023-08-31T15:58:13;6;4;
56069;PMS5003;41944;52.078;-0.058;2023-08-31T16:00:41;5;5;
56069;PMS5003;41944;52.078;-0.058;2023-08-31T16:03:09;8;6;
56069;PMS5003;41944;52.078;-0.058;2023-08-31T16:05:37;12;7;
56069;PMS5003;41944;52.078;-0.058;2023-08-31T16:08:05;5;3;
56069;PMS5003;41944;52.078;-0.058;2023-08-31T16:10:33;6;6;
56069;PMS5003;41944;52.078;-0.058;2023-08-31T16:13:00;9;6;
56069;PMS5003;41944;52.078;-0.058;2023-08-31T16:15:27;10;7;
56069;PMS5003;41944;52.078;-0.058;2023-08-31T16:17:55;11;7;
56069;PMS5003;41944;52.078;-0.058;2023-08-31T16:20:22;7;6;
56069;PMS5003;41944;52.078;-0.058;2023-08-31T16:22:50;6;6;
56069;PMS5003;41944;52.078;-0.058;2023-08-31T16:25:16;8;6;
56069;PMS5003;41944;52.078;-0.058;2023-08-31T16:27:44;8;7;
56069;PMS5003;41944;52.078;-0.058;2023-08-31T16:30:12;4;4;
56069;PMS5003;41944;52.078;-0.058;2023-08-31T16:32:39;7;7;
56069;PMS5003;41944;52.078;-0.058;2023-08-31T16:35:07;7;7;